createdAt,value
2022-08-03T00:00:18.869Z,4.1
2022-08-03T00:02:20.245Z,4.1
2022-08-03T00:04:21.928Z,4.1
2022-08-03T00:07:06.974Z,4.1
2022-08-03T00:09:08.027Z,4.1
2022-08-03T00:11:09.258Z,4.1
2022-08-03T00:13:10.617Z,4.1
2022-08-03T00:15:15.351Z,4.1
2022-08-03T00:17:14.162Z,4.1
2022-08-03T00:21:16.251Z,4.1
2022-08-03T00:23:17.219Z,4.1
2022-08-03T00:25:18.298Z,4.1
2022-08-03T00:27:19.632Z,4.1
2022-08-03T00:29:20.843Z,4.1
2022-08-03T00:31:22.344Z,4.1
2022-08-03T00:33:23.240Z,4.1
2022-08-03T00:37:41.108Z,4.1
2022-08-03T00:39:27.868Z,4.1
2022-08-03T00:41:29.662Z,4.09
2022-08-03T00:43:30.731Z,4.1
2022-08-03T00:45:31.855Z,4.1
2022-08-03T00:47:33.404Z,4.1
2022-08-03T00:49:35.037Z,4.09
2022-08-03T00:53:38.534Z,4.09
2022-08-03T00:55:40.045Z,4.09
2022-08-03T00:57:41.596Z,4.09
2022-08-03T00:59:42.510Z,4.09
2022-08-03T01:03:44.826Z,4.1
2022-08-03T01:05:45.729Z,4.09
2022-08-03T01:07:46.858Z,4.09
2022-08-03T01:09:48.500Z,4.1
2022-08-03T01:12:00.399Z,4.09
2022-08-03T01:14:01.830Z,4.09
2022-08-03T01:15:53.360Z,4.09
2022-08-03T01:19:56.365Z,4.09
2022-08-03T01:21:57.801Z,4.09
2022-08-03T01:23:58.876Z,4.09
2022-08-03T01:26:00.690Z,4.09
2022-08-03T01:28:01.833Z,4.09
2022-08-03T01:30:02.920Z,4.09
2022-08-03T01:32:52.268Z,4.09
2022-08-03T01:36:06.929Z,4.09
2022-08-03T01:38:08.374Z,4.09
2022-08-03T01:40:09.668Z,4.09
2022-08-03T01:42:11.209Z,4.09
2022-08-03T01:46:13.498Z,4.08
2022-08-03T01:48:14.571Z,4.08
2022-08-03T01:52:18.081Z,4.08
2022-08-03T01:54:19.512Z,4.08
2022-08-03T01:56:20.770Z,4.09
2022-08-03T01:58:22.176Z,4.08
2022-08-03T02:02:32.455Z,4.08
2022-08-03T02:04:27.266Z,4.08
2022-08-03T02:06:58.898Z,4.08
2022-08-03T02:08:29.313Z,4.08
2022-08-03T02:10:35.043Z,4.08
2022-08-03T02:12:31.625Z,4.08
2022-08-03T02:14:33.503Z,4.08
2022-08-03T02:18:36.209Z,4.08
2022-08-03T02:20:37.129Z,4.08
2022-08-03T02:22:38.551Z,4.08
2022-08-03T02:26:41.504Z,4.08
2022-08-03T02:28:42.553Z,4.08
2022-08-03T02:30:43.687Z,4.08
2022-08-03T02:32:45.545Z,4.08
2022-08-03T02:34:47.052Z,4.08
2022-08-03T02:36:48.447Z,4.08
2022-08-03T02:38:50.190Z,4.08
2022-08-03T02:40:51.900Z,4.08
2022-08-03T02:44:54.899Z,4.08
2022-08-03T02:46:56.594Z,4.08
2022-08-03T02:50:59.646Z,4.08
2022-08-03T02:53:00.722Z,4.08
2022-08-03T02:55:02.536Z,4.07
2022-08-03T02:57:04.257Z,4.08
2022-08-03T03:01:06.857Z,4.08
2022-08-03T03:03:08.395Z,4.07
2022-08-03T03:05:53.901Z,4.08
2022-08-03T03:07:11.618Z,4.08
2022-08-03T03:09:13.446Z,4.07
2022-08-03T03:11:15.162Z,4.08
2022-08-03T03:13:16.849Z,4.08
2022-08-03T03:17:19.392Z,4.08
2022-08-03T03:19:21.212Z,4.07
2022-08-03T03:21:22.513Z,4.07
2022-08-03T03:23:23.558Z,4.07
2022-08-03T03:27:27.111Z,4.07
2022-08-03T03:29:28.412Z,4.07
2022-08-03T03:31:29.560Z,4.07
2022-08-03T03:33:30.840Z,4.07
2022-08-03T03:35:37.176Z,4.07
2022-08-03T03:37:33.693Z,4.07
2022-08-03T03:39:35.006Z,4.07
2022-08-03T03:43:38.308Z,4.07
2022-08-03T03:45:40.067Z,4.07
2022-08-03T03:47:41.419Z,4.07
2022-08-03T03:49:42.522Z,4.07
2022-08-03T03:51:44.401Z,4.07
2022-08-03T03:53:46.031Z,4.07
2022-08-03T03:55:57.662Z,4.07
2022-08-03T03:59:49.774Z,4.07
2022-08-03T04:01:58.525Z,4.07
2022-08-03T04:03:53.193Z,4.07
2022-08-03T04:05:54.284Z,4.06
2022-08-03T04:09:57.256Z,4.06
2022-08-03T04:11:58.677Z,4.06
2022-08-03T04:14:01.829Z,4.06
2022-08-03T04:16:02.104Z,4.06
2022-08-03T04:18:03.513Z,4.06
2022-08-03T04:20:05.421Z,4.06
2022-08-03T04:22:06.715Z,4.06
2022-08-03T04:26:09.309Z,4.06
2022-08-03T04:28:30.282Z,4.06
2022-08-03T04:30:12.503Z,4.06
2022-08-03T04:32:14.548Z,4.06
2022-08-03T04:34:15.724Z,4.06
2022-08-03T04:36:17.580Z,4.06
2022-08-03T04:38:19.122Z,4.06
2022-08-03T04:42:21.847Z,4.06
2022-08-03T04:44:23.427Z,4.06
2022-08-03T04:46:24.904Z,4.06
2022-08-03T04:48:26.668Z,4.06
2022-08-03T04:52:28.670Z,4.06
2022-08-03T04:54:29.601Z,4.06
2022-08-03T04:58:32.506Z,4.06
2022-08-03T05:00:33.797Z,4.06
2022-08-03T05:02:35.509Z,4.06
2022-08-03T05:04:36.520Z,4.06
2022-08-03T05:06:41.430Z,4.06
2022-08-03T05:08:41.248Z,4.06
2022-08-03T05:12:42.234Z,4.07
2022-08-03T05:14:43.973Z,4.07
2022-08-03T05:16:45.698Z,4.07
2022-08-03T05:18:46.595Z,4.07
2022-08-03T05:20:48.016Z,4.07
2022-08-03T05:24:50.528Z,4.08
2022-08-03T05:26:51.983Z,4.08
2022-08-03T05:28:53.763Z,4.08
2022-08-03T05:30:55.040Z,4.08
2022-08-03T05:34:58.335Z,4.09
2022-08-03T05:37:00.110Z,4.09
2022-08-03T05:39:02.846Z,4.1
2022-08-03T05:41:20.816Z,4.1
2022-08-03T05:43:04.409Z,4.1
2022-08-03T05:45:06.134Z,4.1
2022-08-03T05:47:07.424Z,4.11
2022-08-03T05:51:09.840Z,4.11
2022-08-03T05:53:10.934Z,4.12
2022-08-03T05:57:12.986Z,4.12
2022-08-03T05:59:36.845Z,4.13
2022-08-03T06:01:15.499Z,4.13
2022-08-03T06:03:16.343Z,4.14
2022-08-03T06:07:19.129Z,4.14
2022-08-03T06:09:20.499Z,4.15
2022-08-03T06:11:21.579Z,4.15
2022-08-03T06:13:22.522Z,4.15
2022-08-03T06:17:24.692Z,4.16
2022-08-03T06:19:26.349Z,4.16
2022-08-03T06:23:53.534Z,4.17
2022-08-03T06:25:30.195Z,4.17
2022-08-03T06:27:36.478Z,4.17
2022-08-03T06:29:32.511Z,4.17
2022-08-03T06:33:48.659Z,4.17
2022-08-03T06:35:35.482Z,4.18
2022-08-03T06:37:36.915Z,4.18
2022-08-03T06:39:38.665Z,4.18
2022-08-03T06:41:44.632Z,4.18
2022-08-03T06:44:02.719Z,4.18
2022-08-03T06:45:42.832Z,4.19
2022-08-03T06:49:46.535Z,4.19
2022-08-03T06:50:28.929Z,4.19
2022-08-03T06:52:37.326Z,4.19
2022-08-03T06:54:33.159Z,4.19
2022-08-03T06:56:32.114Z,4.19
2022-08-03T07:00:34.650Z,4.19
2022-08-03T07:02:35.769Z,4.19
2022-08-03T07:04:36.975Z,4.19
2022-08-03T07:06:38.079Z,4.19
2022-08-03T07:10:39.829Z,4.19
2022-08-03T07:12:52.902Z,4.2
2022-08-03T07:14:42.440Z,4.19
2022-08-03T07:16:43.613Z,4.19
2022-08-03T07:18:44.549Z,4.2
2022-08-03T07:20:47.133Z,4.2
2022-08-03T07:22:47.972Z,4.2
2022-08-03T07:26:50.324Z,4.2
2022-08-03T07:28:51.189Z,4.2
2022-08-03T07:30:52.941Z,4.2
2022-08-03T07:32:54.297Z,4.2
2022-08-03T07:35:00.436Z,4.2
2022-08-03T07:36:56.826Z,4.2
2022-08-03T07:38:58.068Z,4.2
2022-08-03T07:40:59.638Z,4.2
2022-08-03T07:43:01.237Z,4.2
2022-08-03T07:45:02.549Z,4.2
2022-08-03T07:47:04.008Z,4.19
2022-08-03T07:49:05.362Z,4.19
2022-08-03T07:53:07.172Z,4.19
2022-08-03T07:55:08.361Z,4.19
2022-08-03T07:59:11.731Z,4.19
2022-08-03T08:01:14.954Z,4.19
2022-08-03T08:03:13.289Z,4.19
2022-08-03T08:05:14.686Z,4.19
2022-08-03T08:09:16.944Z,4.19
2022-08-03T08:11:18.356Z,4.18
2022-08-03T08:13:19.388Z,4.19
2022-08-03T08:15:21.004Z,4.19
2022-08-03T08:17:22.455Z,4.18
2022-08-03T08:19:23.594Z,4.19
2022-08-03T08:21:24.710Z,4.18
2022-08-03T08:23:32.612Z,4.19
2022-08-03T08:25:26.892Z,4.18
2022-08-03T08:27:28.316Z,4.19
2022-08-03T08:29:29.194Z,4.18
2022-08-03T08:31:30.663Z,4.19
2022-08-03T08:33:48.252Z,4.19
2022-08-03T08:37:34.978Z,4.18
2022-08-03T08:39:36.505Z,4.18
2022-08-03T08:41:37.918Z,4.18
2022-08-03T08:43:38.668Z,4.18
2022-08-03T08:45:39.639Z,4.18
2022-08-03T08:47:50.699Z,4.18
2022-08-03T08:51:52.715Z,4.18
2022-08-03T08:53:44.406Z,4.18
2022-08-03T08:55:56.898Z,4.18
2022-08-03T08:57:46.732Z,4.18
2022-08-03T08:59:48.153Z,4.18
2022-08-03T09:01:48.560Z,4.18
2022-08-03T09:03:49.862Z,4.18
2022-08-03T09:07:52.036Z,4.18
2022-08-03T09:10:04.712Z,4.18
2022-08-03T09:13:56.651Z,4.17
2022-08-03T09:16:01.087Z,4.18
2022-08-03T09:17:58.798Z,4.17
2022-08-03T09:24:04.077Z,4.17
2022-08-03T09:26:04.017Z,4.17
2022-08-03T09:28:05.414Z,4.17
2022-08-03T09:30:06.147Z,4.17
2022-08-03T09:32:07.009Z,4.17
2022-08-03T09:34:08.097Z,4.17
2022-08-03T09:36:09.204Z,4.17
2022-08-03T09:40:11.489Z,4.17
2022-08-03T09:42:14.398Z,4.17
2022-08-03T09:44:16.135Z,4.17
2022-08-03T09:46:16.099Z,4.17
2022-08-03T09:50:18.857Z,4.17
2022-08-03T09:52:34.129Z,4.17
2022-08-03T09:54:21.118Z,4.17
2022-08-03T09:56:33.141Z,4.17
2022-08-03T10:00:24.244Z,4.17
2022-08-03T10:02:25.825Z,4.17
2022-08-03T10:04:27.316Z,4.17
2022-08-03T10:06:28.930Z,4.17
2022-08-03T10:08:30.048Z,4.17
2022-08-03T10:10:32.293Z,4.17
2022-08-03T10:12:32.214Z,4.17
2022-08-03T10:14:33.814Z,4.17
2022-08-03T10:16:35.475Z,4.17
2022-08-03T10:18:37.168Z,4.17
2022-08-03T10:20:38.330Z,4.17
2022-08-03T10:22:39.323Z,4.17
2022-08-03T10:24:40.790Z,4.17
2022-08-03T10:26:49.630Z,4.17
2022-08-03T10:28:45.404Z,4.16
2022-08-03T10:30:44.639Z,4.17
2022-08-03T10:32:46.318Z,4.17
2022-08-03T10:34:47.687Z,4.16
2022-08-03T10:38:49.564Z,4.16
2022-08-03T10:40:52.605Z,4.16
2022-08-03T10:42:51.956Z,4.16
2022-08-03T10:44:53.184Z,4.16
2022-08-03T10:48:55.664Z,4.16
2022-08-03T10:50:56.448Z,4.16
2022-08-03T10:52:57.365Z,4.16
2022-08-03T10:54:58.983Z,4.16
2022-08-03T10:57:03.417Z,4.16
2022-08-03T10:59:03.759Z,4.16
2022-08-03T11:01:02.742Z,4.16
2022-08-03T11:03:04.386Z,4.16
2022-08-03T11:05:05.527Z,4.16
2022-08-03T11:07:06.824Z,4.16
2022-08-03T11:09:08.099Z,4.16
2022-08-03T11:11:09.181Z,4.16
2022-08-03T11:15:11.438Z,4.16
2022-08-03T11:17:14.425Z,4.16
2022-08-03T11:21:14.578Z,4.16
2022-08-03T11:23:15.604Z,4.16
2022-08-03T11:25:34.698Z,4.16
2022-08-03T11:27:18.229Z,4.16
2022-08-03T11:31:39.529Z,4.16
2022-08-03T11:33:21.273Z,4.16
2022-08-03T11:35:22.231Z,4.16
2022-08-03T11:37:24.036Z,4.16
2022-08-03T11:41:25.426Z,4.16
2022-08-03T11:43:30.481Z,4.16
2022-08-03T11:47:28.799Z,4.16
2022-08-03T11:49:29.858Z,4.16
2022-08-03T11:53:32.422Z,4.15
2022-08-03T11:55:33.425Z,4.16
2022-08-03T11:58:57.590Z,4.15
2022-08-03T11:59:35.772Z,4.15
2022-08-03T12:03:39.014Z,4.16
2022-08-03T12:05:39.977Z,4.15
2022-08-03T12:08:02.762Z,4.16
2022-08-03T12:11:50.840Z,4.15
2022-08-03T12:13:57.364Z,4.15
2022-08-03T12:15:46.115Z,4.15
2022-08-03T12:17:47.469Z,4.15
2022-08-03T12:19:49.038Z,4.15
2022-08-03T12:21:56.515Z,4.15
2022-08-03T12:23:51.174Z,4.15
2022-08-03T12:25:52.426Z,4.15
2022-08-03T12:29:57.178Z,4.15
2022-08-03T12:31:56.597Z,4.15
2022-08-03T12:33:58.817Z,4.15
2022-08-03T12:35:59.009Z,4.15
2022-08-03T12:38:00.552Z,4.15
2022-08-03T12:40:06.689Z,4.15
2022-08-03T12:42:03.389Z,4.15
2022-08-03T12:46:06.204Z,4.15
2022-08-03T12:48:06.978Z,4.14
2022-08-03T12:50:07.806Z,4.14
2022-08-03T12:52:09.046Z,4.14
2022-08-03T12:54:10.443Z,4.14
2022-08-03T12:56:11.849Z,4.14
2022-08-03T12:58:17.175Z,4.14
2022-08-03T13:02:15.465Z,4.15
2022-08-03T13:04:18.304Z,4.14
2022-08-03T13:06:17.868Z,4.14
2022-08-03T13:08:18.587Z,4.14
2022-08-03T13:12:21.107Z,4.14
2022-08-03T13:14:23.566Z,4.14
2022-08-03T13:16:23.625Z,4.14
2022-08-03T13:18:25.161Z,4.14
2022-08-03T13:22:26.890Z,4.14
2022-08-03T13:24:28.018Z,4.14
2022-08-03T13:28:30.306Z,4.14
2022-08-03T13:30:31.454Z,4.14
2022-08-03T13:34:33.627Z,4.14
2022-08-03T13:37:35.815Z,4.14
2022-08-03T13:39:48.427Z,4.14
2022-08-03T13:41:37.339Z,4.14
2022-08-03T13:43:48.934Z,4.14
2022-08-03T13:45:39.594Z,4.16
2022-08-03T13:49:42.723Z,4.17
2022-08-03T13:51:43.751Z,4.17
2022-08-03T13:53:44.500Z,4.17
2022-08-03T13:55:45.577Z,4.17
2022-08-03T13:58:02.156Z,4.18
2022-08-03T13:59:48.039Z,4.18
2022-08-03T14:01:55.190Z,4.18
2022-08-03T14:03:50.279Z,4.18
2022-08-03T14:05:51.458Z,4.19
2022-08-03T14:09:54.080Z,4.19
2022-08-03T14:12:03.915Z,4.19
2022-08-03T14:13:55.997Z,4.19
2022-08-03T14:15:57.074Z,4.19
2022-08-03T14:17:58.670Z,4.19
2022-08-03T14:22:03.673Z,4.19
2022-08-03T14:24:01.554Z,4.19
2022-08-03T14:28:04.113Z,4.19
2022-08-03T14:30:05.278Z,4.19
2022-08-03T14:32:10.547Z,4.19
2022-08-03T14:34:07.266Z,4.19
2022-08-03T14:38:09.869Z,4.19
2022-08-03T14:40:11.148Z,4.19
2022-08-03T14:42:12.363Z,4.19
2022-08-03T14:44:13.467Z,4.19
2022-08-03T14:46:15.205Z,4.2
2022-08-03T14:49:02.835Z,4.2
2022-08-03T14:50:35.572Z,4.19
2022-08-03T14:54:20.214Z,4.2
2022-08-03T14:56:21.484Z,4.2
2022-08-03T14:58:22.880Z,4.2
2022-08-03T15:00:23.949Z,4.19
2022-08-03T15:02:25.095Z,4.19
2022-08-03T15:04:25.546Z,4.19
2022-08-03T15:06:26.884Z,4.19
2022-08-03T15:10:32.693Z,4.19
2022-08-03T15:12:30.617Z,4.19
2022-08-03T15:14:32.554Z,4.19
2022-08-03T15:16:32.929Z,4.18
2022-08-03T15:20:43.632Z,4.19
2022-08-03T15:22:37.209Z,4.19
2022-08-03T15:24:38.763Z,4.18
2022-08-03T15:26:41.700Z,4.19
2022-08-03T15:28:41.280Z,4.19
2022-08-03T15:30:42.571Z,4.18
2022-08-03T15:32:43.472Z,4.18
2022-08-03T15:36:45.886Z,4.18
2022-08-03T15:38:46.867Z,4.18
2022-08-03T15:40:48.491Z,4.18
2022-08-03T15:42:49.872Z,4.18
2022-08-03T15:44:50.914Z,4.18
2022-08-03T15:46:52.642Z,4.18
2022-08-03T15:48:54.123Z,4.18
2022-08-03T15:50:55.607Z,4.18
2022-08-03T15:52:57.128Z,4.18
2022-08-03T15:54:58.730Z,4.18
2022-08-03T15:57:00.298Z,4.18
2022-08-03T15:59:04.936Z,4.18
2022-08-03T16:01:02.705Z,4.18
2022-08-03T16:03:04.275Z,4.18
2022-08-03T16:05:05.007Z,4.17
2022-08-03T16:09:23.269Z,4.18
2022-08-03T16:11:08.291Z,4.18
2022-08-03T16:13:09.810Z,4.17
2022-08-03T16:15:10.842Z,4.17
2022-08-03T16:19:13.211Z,4.18
2022-08-03T16:21:16.977Z,4.17
2022-08-03T16:25:16.966Z,4.17
2022-08-03T16:27:36.921Z,4.17
2022-08-03T16:29:22.735Z,4.17
2022-08-03T16:31:20.472Z,4.17
2022-08-03T16:35:22.685Z,4.17
2022-08-03T16:37:37.993Z,4.17
2022-08-03T16:39:25.192Z,4.17
2022-08-03T16:41:26.502Z,4.17
2022-08-03T16:43:27.932Z,4.17
2022-08-03T16:45:29.232Z,4.17
2022-08-03T16:47:30.696Z,4.17
2022-08-03T16:51:40.260Z,4.17
2022-08-03T16:53:51.815Z,4.17
2022-08-03T16:55:43.055Z,4.17
2022-08-03T16:57:56.856Z,4.17
2022-08-03T17:01:38.493Z,4.17
2022-08-03T17:03:57.519Z,4.17
2022-08-03T17:05:43.942Z,4.17
2022-08-03T17:07:42.345Z,4.17
2022-08-03T17:09:43.863Z,4.17
2022-08-03T17:11:47.009Z,4.17
2022-08-03T17:13:45.789Z,4.17
2022-08-03T17:17:53.894Z,4.17
2022-08-03T17:19:54.135Z,4.17
2022-08-03T17:21:52.141Z,4.17
2022-08-03T17:23:53.251Z,4.17
2022-08-03T17:26:02.667Z,4.17
2022-08-03T17:28:42.552Z,4.17
2022-08-03T17:29:56.868Z,4.17
2022-08-03T17:34:00.323Z,4.16
2022-08-03T17:35:59.926Z,4.17
2022-08-03T17:38:03.505Z,4.16
2022-08-03T17:40:03.709Z,4.16
2022-08-03T17:42:04.022Z,4.17
2022-08-03T17:44:14.732Z,4.16
2022-08-03T17:46:07.294Z,4.16
2022-08-03T17:50:23.641Z,4.16
2022-08-03T17:52:11.516Z,4.17
2022-08-03T17:54:18.265Z,4.16
2022-08-03T17:56:40.552Z,4.16
2022-08-03T18:00:16.490Z,4.16
2022-08-03T18:02:29.747Z,4.16
2022-08-03T18:06:22.688Z,4.16
2022-08-03T18:08:21.740Z,4.16
2022-08-03T18:10:23.050Z,4.16
2022-08-03T18:12:24.490Z,4.16
2022-08-03T18:14:25.618Z,4.16
2022-08-03T18:16:36.270Z,4.16
2022-08-03T18:18:29.398Z,4.16
2022-08-03T18:20:32.439Z,4.16
2022-08-03T18:22:31.144Z,4.16
2022-08-03T18:24:32.148Z,4.16
2022-08-03T18:28:35.007Z,4.16
2022-08-03T18:32:37.984Z,4.16
2022-08-03T18:34:41.035Z,4.16
2022-08-03T18:36:40.814Z,4.16
2022-08-03T18:38:41.828Z,4.16
2022-08-03T18:42:51.039Z,4.16
2022-08-03T18:44:53.724Z,4.16
2022-08-03T18:46:47.181Z,4.16
2022-08-03T18:48:48.260Z,4.16
2022-08-03T18:50:50.153Z,4.16
2022-08-03T18:52:52.705Z,4.16
2022-08-03T18:54:59.320Z,4.15
2022-08-03T18:58:56.076Z,4.15
2022-08-03T19:00:57.679Z,4.15
2022-08-03T19:05:00.142Z,4.15
2022-08-03T19:07:01.819Z,4.16
2022-08-03T19:09:03.171Z,4.16
2022-08-03T19:11:06.002Z,4.15
2022-08-03T19:15:10.665Z,4.15
2022-08-03T19:17:08.720Z,4.15
2022-08-03T19:19:09.385Z,4.15
2022-08-03T19:21:12.625Z,4.15
2022-08-03T19:25:13.866Z,4.15
2022-08-03T19:27:15.887Z,4.15
2022-08-03T19:31:17.152Z,4.14
2022-08-03T19:33:18.250Z,4.15
2022-08-03T19:35:46.578Z,4.15
2022-08-03T19:37:22.043Z,4.14
2022-08-03T19:41:24.196Z,4.14
2022-08-03T19:43:25.231Z,4.15
2022-08-03T19:45:52.791Z,4.15
2022-08-03T19:47:28.365Z,4.15
2022-08-03T19:49:57.152Z,4.15
2022-08-03T19:51:56.746Z,4.15
2022-08-03T19:53:34.588Z,4.15
2022-08-03T19:57:35.019Z,4.15
2022-08-03T19:59:40.558Z,4.14
2022-08-03T20:01:50.550Z,4.14
2022-08-03T20:03:43.217Z,4.14
2022-08-03T20:05:41.002Z,4.14
2022-08-03T20:07:40.955Z,4.14
2022-08-03T20:09:42.424Z,4.14
2022-08-03T20:13:44.915Z,4.14
2022-08-03T20:15:46.694Z,4.14
2022-08-03T20:17:55.814Z,4.14
2022-08-03T20:19:49.206Z,4.14
2022-08-03T20:20:32.892Z,4.14
2022-08-03T20:22:33.757Z,4.14
2022-08-03T20:24:34.531Z,4.14
2022-08-03T20:26:35.470Z,4.14
2022-08-03T20:28:49.951Z,4.14
2022-08-03T20:30:37.948Z,4.14
2022-08-03T20:34:40.708Z,4.14
2022-08-03T20:36:41.904Z,4.14
2022-08-03T20:38:43.885Z,4.14
2022-08-03T20:40:45.003Z,4.14
2022-08-03T20:42:45.826Z,4.14
2022-08-03T20:44:47.459Z,4.14
2022-08-03T20:46:53.042Z,4.14
2022-08-03T20:50:50.576Z,4.14
2022-08-03T20:52:51.408Z,4.14
2022-08-03T20:54:52.603Z,4.13
2022-08-03T20:56:54.279Z,4.13
2022-08-03T20:58:55.436Z,4.14
2022-08-03T21:00:56.454Z,4.13
2022-08-03T21:02:57.242Z,4.14
2022-08-03T21:07:00.400Z,4.14
2022-08-03T21:09:03.935Z,4.14
2022-08-03T21:11:03.945Z,4.13
2022-08-03T21:15:06.154Z,4.13
2022-08-03T21:19:09.344Z,4.13
2022-08-03T21:21:10.323Z,4.13
2022-08-03T21:23:11.162Z,4.13
2022-08-03T21:25:12.989Z,4.13
2022-08-03T21:27:13.921Z,4.13
2022-08-03T21:29:15.731Z,4.13
2022-08-03T21:33:18.439Z,4.13
2022-08-03T21:35:19.767Z,4.13
2022-08-03T21:37:21.067Z,4.13
2022-08-03T21:39:22.609Z,4.13
2022-08-03T21:41:23.764Z,4.13
2022-08-03T21:43:24.632Z,4.13
2022-08-03T21:45:25.960Z,4.13
2022-08-03T21:49:51.662Z,4.13
2022-08-03T21:51:29.609Z,4.13
2022-08-03T21:54:03.111Z,4.13
2022-08-03T21:55:32.445Z,4.12
2022-08-03T21:59:35.709Z,4.13
2022-08-03T22:01:37.480Z,4.13
2022-08-03T22:05:42.796Z,4.12
2022-08-03T22:07:40.626Z,4.12
2022-08-03T22:09:50.259Z,4.12
2022-08-03T22:11:43.890Z,4.12
2022-08-03T22:15:47.097Z,4.12
2022-08-03T22:17:54.491Z,4.12
2022-08-03T22:21:50.906Z,4.12
2022-08-03T22:23:52.032Z,4.12
2022-08-03T22:25:53.511Z,4.12
2022-08-03T22:27:54.823Z,4.12
2022-08-03T22:31:59.318Z,4.12
2022-08-03T22:33:59.159Z,4.12
2022-08-03T22:36:00.403Z,4.12
2022-08-03T22:38:01.436Z,4.12
2022-08-03T22:42:04.941Z,4.12
2022-08-03T22:44:06.135Z,4.12
2022-08-03T22:46:12.495Z,4.12
2022-08-03T22:48:08.576Z,4.12
2022-08-03T22:50:33.002Z,4.12
2022-08-03T22:52:11.647Z,4.12
2022-08-03T22:54:12.766Z,4.12
2022-08-03T22:58:15.940Z,4.12
2022-08-03T23:00:16.919Z,4.12
2022-08-03T23:02:20.048Z,4.12
2022-08-03T23:04:19.355Z,4.12
2022-08-03T23:06:20.648Z,4.12
2022-08-03T23:08:21.944Z,4.12
2022-08-03T23:12:25.174Z,4.12
2022-08-03T23:14:26.700Z,4.12
2022-08-03T23:16:29.441Z,4.11
2022-08-03T23:18:29.871Z,4.12
2022-08-03T23:20:30.543Z,4.12
2022-08-03T23:22:32.010Z,4.12
2022-08-03T23:24:33.626Z,4.12
2022-08-03T23:26:34.555Z,4.12
2022-08-03T23:30:37.808Z,4.12
2022-08-03T23:32:39.090Z,4.12
2022-08-03T23:34:40.712Z,4.11
2022-08-03T23:36:42.548Z,4.12
2022-08-03T23:40:45.398Z,4.11
2022-08-03T23:42:46.997Z,4.11
2022-08-03T23:44:48.186Z,4.11
2022-08-03T23:46:49.919Z,4.11
2022-08-03T23:48:50.999Z,4.11
2022-08-03T23:50:52.350Z,4.11
2022-08-03T23:52:54.071Z,4.11
2022-08-03T23:56:57.225Z,4.11
2022-08-03T23:58:58.653Z,4.11
